sensor_id;sensor_type;location;lat;lon;timestamp;temperature;humidity
7704;DHT22;3894;49.700;10.770;2023-09-19T00:01:33;16.00;99.90
7704;DHT22;3894;49.700;10.770;2023-09-19T00:03:58;16.00;99.90
7704;DHT22;3894;49.700;10.770;2023-09-19T00:06:25;15.90;99.90
7704;DHT22;3894;49.700;10.770;2023-09-19T00:08:54;15.80;99.90
7704;DHT22;3894;49.700;10.770;2023-09-19T00:11:20;15.80;99.90
7704;DHT22;3894;49.700;10.770;2023-09-19T00:13:47;15.80;99.90
7704;DHT22;3894;49.700;10.770;2023-09-19T00:16:15;15.80;99.90
7704;DHT22;3894;49.700;10.770;2023-09-19T00:18:40;15.90;99.90
7704;DHT22;3894;49.700;10.770;2023-09-19T00:21:06;15.90;99.90
7704;DHT22;3894;49.700;10.770;2023-09-19T00:23:33;15.80;99.90
7704;DHT22;3894;49.700;10.770;2023-09-19T00:26:00;15.80;99.90
7704;DHT22;3894;49.700;10.770;2023-09-19T00:28:26;15.70;99.90
7704;DHT22;3894;49.700;10.770;2023-09-19T00:30:52;15.70;99.90
7704;DHT22;3894;49.700;10.770;2023-09-19T00:33:20;15.70;99.90
7704;DHT22;3894;49.700;10.770;2023-09-19T00:35:53;15.70;99.90
7704;DHT22;3894;49.700;10.770;2023-09-19T00:38:19;15.70;99.90
7704;DHT22;3894;49.700;10.770;2023-09-19T00:40:48;15.60;99.90
7704;DHT22;3894;49.700;10.770;2023-09-19T00:43:14;15.60;99.90
7704;DHT22;3894;49.700;10.770;2023-09-19T00:45:45;15.60;99.90
7704;DHT22;3894;49.700;10.770;2023-09-19T00:48:11;15.60;99.90
7704;DHT22;3894;49.700;10.770;2023-09-19T00:50:38;15.60;99.90
7704;DHT22;3894;49.700;10.770;2023-09-19T00:53:08;15.60;99.90
7704;DHT22;3894;49.700;10.770;2023-09-19T00:55:38;15.60;99.90
7704;DHT22;3894;49.700;10.770;2023-09-19T00:58:04;15.60;99.90
7704;DHT22;3894;49.700;10.770;2023-09-19T01:00:33;15.60;99.90
7704;DHT22;3894;49.700;10.770;2023-09-19T01:03:00;15.60;99.90
7704;DHT22;3894;49.700;10.770;2023-09-19T01:05:29;15.60;99.90
7704;DHT22;3894;49.700;10.770;2023-09-19T01:07:55;15.60;99.90
7704;DHT22;3894;49.700;10.770;2023-09-19T01:10:21;15.60;99.90
7704;DHT22;3894;49.700;10.770;2023-09-19T01:16:46;15.60;99.90
7704;DHT22;3894;49.700;10.770;2023-09-19T01:21:57;15.50;99.90
7704;DHT22;3894;49.700;10.770;2023-09-19T01:25:18;15.50;99.90
7704;DHT22;3894;49.700;10.770;2023-09-19T01:28:18;15.50;99.90
7704;DHT22;3894;49.700;10.770;2023-09-19T01:30:52;15.50;99.90
7704;DHT22;3894;49.700;10.770;2023-09-19T01:33:23;15.60;99.90
7704;DHT22;3894;49.700;10.770;2023-09-19T01:35:49;15.60;99.90
7704;DHT22;3894;49.700;10.770;2023-09-19T01:38:15;15.60;99.90
7704;DHT22;3894;49.700;10.770;2023-09-19T01:41:10;15.60;99.90
7704;DHT22;3894;49.700;10.770;2023-09-19T01:43:43;15.50;99.90
7704;DHT22;3894;49.700;10.770;2023-09-19T01:46:33;15.50;99.90
7704;DHT22;3894;49.700;10.770;2023-09-19T01:49:18;15.50;99.90
7704;DHT22;3894;49.700;10.770;2023-09-19T01:52:10;15.50;99.90
7704;DHT22;3894;49.700;10.770;2023-09-19T01:54:52;15.50;99.90
7704;DHT22;3894;49.700;10.770;2023-09-19T01:57:28;15.50;99.90
7704;DHT22;3894;49.700;10.770;2023-09-19T02:00:07;15.50;99.90
7704;DHT22;3894;49.700;10.770;2023-09-19T02:02:37;15.60;99.90
7704;DHT22;3894;49.700;10.770;2023-09-19T02:05:06;15.60;99.90
7704;DHT22;3894;49.700;10.770;2023-09-19T02:07:31;15.60;99.90
7704;DHT22;3894;49.700;10.770;2023-09-19T02:10:00;15.60;99.90
7704;DHT22;3894;49.700;10.770;2023-09-19T02:12:32;15.70;99.90
7704;DHT22;3894;49.700;10.770;2023-09-19T02:15:03;15.70;99.90
7704;DHT22;3894;49.700;10.770;2023-09-19T02:17:32;15.60;99.90
7704;DHT22;3894;49.700;10.770;2023-09-19T02:19:58;15.60;99.90
7704;DHT22;3894;49.700;10.770;2023-09-19T02:22:28;15.60;99.90
7704;DHT22;3894;49.700;10.770;2023-09-19T02:24:55;15.50;99.90
7704;DHT22;3894;49.700;10.770;2023-09-19T02:27:23;15.50;99.90
7704;DHT22;3894;49.700;10.770;2023-09-19T02:29:49;15.50;99.90
7704;DHT22;3894;49.700;10.770;2023-09-19T02:32:15;15.50;99.90
7704;DHT22;3894;49.700;10.770;2023-09-19T02:34:45;15.50;99.90
7704;DHT22;3894;49.700;10.770;2023-09-19T02:37:11;15.50;99.90
7704;DHT22;3894;49.700;10.770;2023-09-19T02:39:41;15.50;99.90
7704;DHT22;3894;49.700;10.770;2023-09-19T02:42:07;15.40;99.90
7704;DHT22;3894;49.700;10.770;2023-09-19T02:44:36;15.40;99.90
7704;DHT22;3894;49.700;10.770;2023-09-19T02:47:06;15.50;99.90
7704;DHT22;3894;49.700;10.770;2023-09-19T02:49:31;15.40;99.90
7704;DHT22;3894;49.700;10.770;2023-09-19T02:51:58;15.40;99.90
7704;DHT22;3894;49.700;10.770;2023-09-19T02:54:25;15.50;99.90
7704;DHT22;3894;49.700;10.770;2023-09-19T02:56:53;15.50;99.90
7704;DHT22;3894;49.700;10.770;2023-09-19T02:59:21;15.50;99.90
7704;DHT22;3894;49.700;10.770;2023-09-19T03:01:52;15.60;99.90
7704;DHT22;3894;49.700;10.770;2023-09-19T03:04:19;15.60;99.90
7704;DHT22;3894;49.700;10.770;2023-09-19T03:06:46;15.60;99.90
7704;DHT22;3894;49.700;10.770;2023-09-19T03:09:16;15.60;99.90
7704;DHT22;3894;49.700;10.770;2023-09-19T03:11:42;15.60;99.90
7704;DHT22;3894;49.700;10.770;2023-09-19T03:14:09;15.60;99.90
7704;DHT22;3894;49.700;10.770;2023-09-19T03:16:36;15.60;99.90
7704;DHT22;3894;49.700;10.770;2023-09-19T03:19:15;15.60;99.90
7704;DHT22;3894;49.700;10.770;2023-09-19T03:21:40;15.60;99.90
7704;DHT22;3894;49.700;10.770;2023-09-19T03:24:09;15.70;99.90
7704;DHT22;3894;49.700;10.770;2023-09-19T03:26:34;15.60;99.90
7704;DHT22;3894;49.700;10.770;2023-09-19T03:29:04;15.60;99.90
7704;DHT22;3894;49.700;10.770;2023-09-19T03:31:39;15.60;99.90
7704;DHT22;3894;49.700;10.770;2023-09-19T03:34:04;15.70;99.90
7704;DHT22;3894;49.700;10.770;2023-09-19T03:36:30;15.70;99.90
7704;DHT22;3894;49.700;10.770;2023-09-19T03:38:56;15.70;99.90
7704;DHT22;3894;49.700;10.770;2023-09-19T03:41:22;15.70;99.90
7704;DHT22;3894;49.700;10.770;2023-09-19T03:43:47;15.80;99.90
7704;DHT22;3894;49.700;10.770;2023-09-19T03:46:13;15.80;99.90
7704;DHT22;3894;49.700;10.770;2023-09-19T03:48:40;15.90;99.90
7704;DHT22;3894;49.700;10.770;2023-09-19T03:51:06;15.90;99.90
7704;DHT22;3894;49.700;10.770;2023-09-19T03:53:31;15.90;99.90
7704;DHT22;3894;49.700;10.770;2023-09-19T03:56:00;15.90;99.90
7704;DHT22;3894;49.700;10.770;2023-09-19T03:58:34;15.90;99.90
7704;DHT22;3894;49.700;10.770;2023-09-19T04:01:04;15.90;99.90
7704;DHT22;3894;49.700;10.770;2023-09-19T04:03:36;15.90;99.90
7704;DHT22;3894;49.700;10.770;2023-09-19T04:06:15;15.90;99.90
7704;DHT22;3894;49.700;10.770;2023-09-19T04:08:41;15.90;99.90
7704;DHT22;3894;49.700;10.770;2023-09-19T04:11:10;15.90;99.90
7704;DHT22;3894;49.700;10.770;2023-09-19T04:13:35;15.90;99.90
7704;DHT22;3894;49.700;10.770;2023-09-19T04:16:04;15.90;99.90
7704;DHT22;3894;49.700;10.770;2023-09-19T04:18:32;16.00;99.90
7704;DHT22;3894;49.700;10.770;2023-09-19T04:20:59;16.00;99.90
7704;DHT22;3894;49.700;10.770;2023-09-19T04:23:30;16.00;99.90
7704;DHT22;3894;49.700;10.770;2023-09-19T04:25:56;16.00;99.90
7704;DHT22;3894;49.700;10.770;2023-09-19T04:28:25;16.00;99.90
7704;DHT22;3894;49.700;10.770;2023-09-19T04:30:53;16.00;99.90
7704;DHT22;3894;49.700;10.770;2023-09-19T04:33:18;16.00;99.90
7704;DHT22;3894;49.700;10.770;2023-09-19T04:35:44;16.00;99.90
7704;DHT22;3894;49.700;10.770;2023-09-19T04:38:10;16.00;99.90
7704;DHT22;3894;49.700;10.770;2023-09-19T04:40:36;16.00;99.90
7704;DHT22;3894;49.700;10.770;2023-09-19T04:43:05;16.00;99.90
7704;DHT22;3894;49.700;10.770;2023-09-19T04:45:31;16.00;99.90
7704;DHT22;3894;49.700;10.770;2023-09-19T04:47:57;16.00;99.90
7704;DHT22;3894;49.700;10.770;2023-09-19T04:50:22;16.00;99.90
7704;DHT22;3894;49.700;10.770;2023-09-19T04:52:50;16.00;99.90
7704;DHT22;3894;49.700;10.770;2023-09-19T04:55:17;16.00;99.90
7704;DHT22;3894;49.700;10.770;2023-09-19T04:57:44;16.00;99.90
7704;DHT22;3894;49.700;10.770;2023-09-19T05:00:12;16.00;99.90
7704;DHT22;3894;49.700;10.770;2023-09-19T05:02:40;15.90;99.90
7704;DHT22;3894;49.700;10.770;2023-09-19T05:05:09;15.90;99.90
7704;DHT22;3894;49.700;10.770;2023-09-19T05:07:36;15.90;99.90
7704;DHT22;3894;49.700;10.770;2023-09-19T05:10:02;15.90;99.90
7704;DHT22;3894;49.700;10.770;2023-09-19T05:12:32;15.90;99.90
7704;DHT22;3894;49.700;10.770;2023-09-19T05:14:57;15.90;99.90
7704;DHT22;3894;49.700;10.770;2023-09-19T05:17:26;15.90;99.90
7704;DHT22;3894;49.700;10.770;2023-09-19T05:19:52;15.90;99.90
7704;DHT22;3894;49.700;10.770;2023-09-19T05:22:18;15.90;99.90
7704;DHT22;3894;49.700;10.770;2023-09-19T05:24:44;15.90;99.90
7704;DHT22;3894;49.700;10.770;2023-09-19T05:27:16;15.80;99.90
7704;DHT22;3894;49.700;10.770;2023-09-19T05:29:45;15.80;99.90
7704;DHT22;3894;49.700;10.770;2023-09-19T05:32:11;15.80;99.90
7704;DHT22;3894;49.700;10.770;2023-09-19T05:34:38;15.80;99.90
7704;DHT22;3894;49.700;10.770;2023-09-19T05:37:04;15.80;99.90
7704;DHT22;3894;49.700;10.770;2023-09-19T05:39:33;15.80;99.90
7704;DHT22;3894;49.700;10.770;2023-09-19T05:42:00;15.80;99.90
7704;DHT22;3894;49.700;10.770;2023-09-19T05:44:26;15.80;99.90
7704;DHT22;3894;49.700;10.770;2023-09-19T05:46:53;15.80;99.90
7704;DHT22;3894;49.700;10.770;2023-09-19T05:49:18;15.80;99.90
7704;DHT22;3894;49.700;10.770;2023-09-19T05:51:47;15.80;99.90
7704;DHT22;3894;49.700;10.770;2023-09-19T05:54:12;15.80;99.90
7704;DHT22;3894;49.700;10.770;2023-09-19T05:56:38;15.80;99.90
7704;DHT22;3894;49.700;10.770;2023-09-19T05:59:04;15.70;99.90
7704;DHT22;3894;49.700;10.770;2023-09-19T06:01:33;15.70;99.90
7704;DHT22;3894;49.700;10.770;2023-09-19T06:04:02;15.70;99.90
7704;DHT22;3894;49.700;10.770;2023-09-19T06:06:28;15.80;99.90
7704;DHT22;3894;49.700;10.770;2023-09-19T06:08:56;15.90;99.90
7704;DHT22;3894;49.700;10.770;2023-09-19T06:11:23;16.00;99.90
7704;DHT22;3894;49.700;10.770;2023-09-19T06:13:51;16.00;99.90
7704;DHT22;3894;49.700;10.770;2023-09-19T06:16:18;16.00;99.90
7704;DHT22;3894;49.700;10.770;2023-09-19T06:18:45;16.20;99.90
7704;DHT22;3894;49.700;10.770;2023-09-19T06:21:10;16.30;99.90
7704;DHT22;3894;49.700;10.770;2023-09-19T06:23:36;16.50;99.90
7704;DHT22;3894;49.700;10.770;2023-09-19T06:26:02;16.60;99.90
7704;DHT22;3894;49.700;10.770;2023-09-19T06:28:32;16.80;99.90
7704;DHT22;3894;49.700;10.770;2023-09-19T06:30:58;16.80;99.90
7704;DHT22;3894;49.700;10.770;2023-09-19T06:33:24;16.90;99.90
7704;DHT22;3894;49.700;10.770;2023-09-19T06:35:50;16.90;99.90
7704;DHT22;3894;49.700;10.770;2023-09-19T06:38:18;16.90;99.90
7704;DHT22;3894;49.700;10.770;2023-09-19T06:40:44;16.90;99.90
7704;DHT22;3894;49.700;10.770;2023-09-19T06:43:10;16.80;99.90
7704;DHT22;3894;49.700;10.770;2023-09-19T06:45:36;16.70;99.90
7704;DHT22;3894;49.700;10.770;2023-09-19T06:48:02;16.70;99.90
7704;DHT22;3894;49.700;10.770;2023-09-19T06:50:28;16.70;99.90
7704;DHT22;3894;49.700;10.770;2023-09-19T06:52:58;16.80;99.90
7704;DHT22;3894;49.700;10.770;2023-09-19T06:55:25;16.90;99.90
7704;DHT22;3894;49.700;10.770;2023-09-19T06:57:53;17.00;99.90
7704;DHT22;3894;49.700;10.770;2023-09-19T07:00:23;16.90;99.90
7704;DHT22;3894;49.700;10.770;2023-09-19T07:03:05;17.10;99.90
7704;DHT22;3894;49.700;10.770;2023-09-19T07:05:36;17.10;99.90
7704;DHT22;3894;49.700;10.770;2023-09-19T07:08:09;17.10;99.90
7704;DHT22;3894;49.700;10.770;2023-09-19T07:10:41;17.10;99.90
7704;DHT22;3894;49.700;10.770;2023-09-19T07:13:14;17.10;99.90
7704;DHT22;3894;49.700;10.770;2023-09-19T07:15:42;17.30;99.90
7704;DHT22;3894;49.700;10.770;2023-09-19T07:18:12;17.30;99.90
7704;DHT22;3894;49.700;10.770;2023-09-19T07:20:40;17.40;99.90
7704;DHT22;3894;49.700;10.770;2023-09-19T07:23:11;17.30;99.90
7704;DHT22;3894;49.700;10.770;2023-09-19T07:25:39;17.30;99.90
7704;DHT22;3894;49.700;10.770;2023-09-19T07:28:05;17.30;99.90
7704;DHT22;3894;49.700;10.770;2023-09-19T07:30:30;17.40;99.90
7704;DHT22;3894;49.700;10.770;2023-09-19T07:32:56;17.40;99.90
7704;DHT22;3894;49.700;10.770;2023-09-19T07:35:22;17.50;99.90
7704;DHT22;3894;49.700;10.770;2023-09-19T07:37:49;17.80;99.90
7704;DHT22;3894;49.700;10.770;2023-09-19T07:40:15;18.20;99.90
7704;DHT22;3894;49.700;10.770;2023-09-19T07:42:41;18.20;99.90
7704;DHT22;3894;49.700;10.770;2023-09-19T07:45:08;18.10;99.90
7704;DHT22;3894;49.700;10.770;2023-09-19T07:47:34;18.00;99.90
7704;DHT22;3894;49.700;10.770;2023-09-19T07:50:01;18.00;99.90
7704;DHT22;3894;49.700;10.770;2023-09-19T07:52:28;17.90;99.90
7704;DHT22;3894;49.700;10.770;2023-09-19T07:54:54;17.90;99.90
7704;DHT22;3894;49.700;10.770;2023-09-19T07:57:20;17.80;99.90
7704;DHT22;3894;49.700;10.770;2023-09-19T07:59:45;17.80;99.90
7704;DHT22;3894;49.700;10.770;2023-09-19T08:02:11;18.00;99.90
7704;DHT22;3894;49.700;10.770;2023-09-19T08:04:45;18.30;99.90
7704;DHT22;3894;49.700;10.770;2023-09-19T08:07:13;18.40;99.90
7704;DHT22;3894;49.700;10.770;2023-09-19T08:09:39;18.70;99.90
7704;DHT22;3894;49.700;10.770;2023-09-19T08:12:06;18.70;99.90
7704;DHT22;3894;49.700;10.770;2023-09-19T08:14:33;18.70;99.90
7704;DHT22;3894;49.700;10.770;2023-09-19T08:16:59;18.90;99.90
7704;DHT22;3894;49.700;10.770;2023-09-19T08:19:26;18.70;99.90
7704;DHT22;3894;49.700;10.770;2023-09-19T08:21:58;18.90;99.90
7704;DHT22;3894;49.700;10.770;2023-09-19T08:24:25;19.00;99.90
7704;DHT22;3894;49.700;10.770;2023-09-19T08:26:52;19.10;99.90
7704;DHT22;3894;49.700;10.770;2023-09-19T08:29:20;19.00;99.90
7704;DHT22;3894;49.700;10.770;2023-09-19T08:31:45;18.80;99.90
7704;DHT22;3894;49.700;10.770;2023-09-19T08:34:13;18.60;99.90
7704;DHT22;3894;49.700;10.770;2023-09-19T08:36:38;18.60;99.90
7704;DHT22;3894;49.700;10.770;2023-09-19T08:39:04;18.50;99.90
7704;DHT22;3894;49.700;10.770;2023-09-19T08:41:30;18.40;99.90
7704;DHT22;3894;49.700;10.770;2023-09-19T08:43:59;18.30;99.90
7704;DHT22;3894;49.700;10.770;2023-09-19T08:46:30;18.20;99.90
7704;DHT22;3894;49.700;10.770;2023-09-19T08:49:14;18.20;99.90
7704;DHT22;3894;49.700;10.770;2023-09-19T08:51:43;18.20;99.90
7704;DHT22;3894;49.700;10.770;2023-09-19T08:54:24;18.50;99.90
7704;DHT22;3894;49.700;10.770;2023-09-19T08:56:53;18.70;99.90
7704;DHT22;3894;49.700;10.770;2023-09-19T08:59:22;18.70;99.90
7704;DHT22;3894;49.700;10.770;2023-09-19T09:01:53;18.60;99.90
7704;DHT22;3894;49.700;10.770;2023-09-19T09:04:19;18.60;99.90
7704;DHT22;3894;49.700;10.770;2023-09-19T09:06:45;18.60;99.90
7704;DHT22;3894;49.700;10.770;2023-09-19T09:09:14;18.70;99.90
7704;DHT22;3894;49.700;10.770;2023-09-19T09:11:40;18.80;99.90
7704;DHT22;3894;49.700;10.770;2023-09-19T09:14:06;18.80;99.90
7704;DHT22;3894;49.700;10.770;2023-09-19T09:16:33;18.80;99.90
7704;DHT22;3894;49.700;10.770;2023-09-19T09:18:59;18.80;99.90
7704;DHT22;3894;49.700;10.770;2023-09-19T09:21:25;18.70;99.90
7704;DHT22;3894;49.700;10.770;2023-09-19T09:23:51;18.70;99.90
7704;DHT22;3894;49.700;10.770;2023-09-19T09:29:04;18.50;99.90
7704;DHT22;3894;49.700;10.770;2023-09-19T09:31:29;18.50;99.90
7704;DHT22;3894;49.700;10.770;2023-09-19T09:33:56;18.40;99.90
7704;DHT22;3894;49.700;10.770;2023-09-19T09:36:39;18.30;99.90
7704;DHT22;3894;49.700;10.770;2023-09-19T09:39:07;18.30;99.90
7704;DHT22;3894;49.700;10.770;2023-09-19T09:41:42;18.20;99.90
7704;DHT22;3894;49.700;10.770;2023-09-19T09:44:18;18.20;99.90
7704;DHT22;3894;49.700;10.770;2023-09-19T09:46:48;18.40;99.90
7704;DHT22;3894;49.700;10.770;2023-09-19T09:49:24;18.50;99.90
7704;DHT22;3894;49.700;10.770;2023-09-19T09:52:04;18.50;99.90
7704;DHT22;3894;49.700;10.770;2023-09-19T09:55:01;18.60;99.90
7704;DHT22;3894;49.700;10.770;2023-09-19T09:57:31;18.70;99.90
7704;DHT22;3894;49.700;10.770;2023-09-19T09:59:58;18.80;99.90
7704;DHT22;3894;49.700;10.770;2023-09-19T10:02:29;18.90;99.90
7704;DHT22;3894;49.700;10.770;2023-09-19T10:04:59;18.90;99.90
7704;DHT22;3894;49.700;10.770;2023-09-19T10:07:33;19.10;99.90
7704;DHT22;3894;49.700;10.770;2023-09-19T10:10:02;19.40;99.90
7704;DHT22;3894;49.700;10.770;2023-09-19T10:12:47;19.50;99.90
7704;DHT22;3894;49.700;10.770;2023-09-19T10:15:19;19.50;99.90
7704;DHT22;3894;49.700;10.770;2023-09-19T10:17:50;19.60;99.90
7704;DHT22;3894;49.700;10.770;2023-09-19T10:20:19;19.60;99.90
7704;DHT22;3894;49.700;10.770;2023-09-19T10:22:58;19.70;99.90
7704;DHT22;3894;49.700;10.770;2023-09-19T10:25:28;19.80;99.90
7704;DHT22;3894;49.700;10.770;2023-09-19T10:27:54;19.90;99.90
7704;DHT22;3894;49.700;10.770;2023-09-19T10:30:22;20.10;99.90
7704;DHT22;3894;49.700;10.770;2023-09-19T10:32:57;20.00;99.90
7704;DHT22;3894;49.700;10.770;2023-09-19T10:35:23;20.20;99.90
7704;DHT22;3894;49.700;10.770;2023-09-19T10:37:51;20.20;99.90
7704;DHT22;3894;49.700;10.770;2023-09-19T10:40:21;20.20;99.90
7704;DHT22;3894;49.700;10.770;2023-09-19T10:42:48;20.10;99.90
7704;DHT22;3894;49.700;10.770;2023-09-19T10:45:16;20.30;99.90
7704;DHT22;3894;49.700;10.770;2023-09-19T10:47:45;20.20;99.90
7704;DHT22;3894;49.700;10.770;2023-09-19T10:50:20;20.30;99.90
7704;DHT22;3894;49.700;10.770;2023-09-19T10:52:48;20.30;99.90
7704;DHT22;3894;49.700;10.770;2023-09-19T10:55:19;20.50;99.90
7704;DHT22;3894;49.700;10.770;2023-09-19T10:57:49;20.70;99.90
7704;DHT22;3894;49.700;10.770;2023-09-19T11:00:14;20.80;99.90
7704;DHT22;3894;49.700;10.770;2023-09-19T11:03:22;20.80;99.90
7704;DHT22;3894;49.700;10.770;2023-09-19T11:06:09;20.50;99.90
7704;DHT22;3894;49.700;10.770;2023-09-19T11:08:55;20.40;99.90
7704;DHT22;3894;49.700;10.770;2023-09-19T11:11:47;20.70;99.90
7704;DHT22;3894;49.700;10.770;2023-09-19T11:30:40;20.20;99.90
7704;DHT22;3894;49.700;10.770;2023-09-19T11:33:18;20.40;99.90
7704;DHT22;3894;49.700;10.770;2023-09-19T11:36:15;20.60;99.90
7704;DHT22;3894;49.700;10.770;2023-09-19T11:41:41;21.00;99.90
7704;DHT22;3894;49.700;10.770;2023-09-19T11:46:53;21.30;99.90
7704;DHT22;3894;49.700;10.770;2023-09-19T11:49:24;21.10;99.90
7704;DHT22;3894;49.700;10.770;2023-09-19T11:51:52;21.10;99.90
7704;DHT22;3894;49.700;10.770;2023-09-19T11:54:19;21.00;99.90
7704;DHT22;3894;49.700;10.770;2023-09-19T11:56:49;20.70;99.90
7704;DHT22;3894;49.700;10.770;2023-09-19T11:59:29;20.80;99.90
7704;DHT22;3894;49.700;10.770;2023-09-19T12:02:05;20.90;99.90
7704;DHT22;3894;49.700;10.770;2023-09-19T12:04:38;21.00;99.90
7704;DHT22;3894;49.700;10.770;2023-09-19T12:07:08;21.00;99.90
7704;DHT22;3894;49.700;10.770;2023-09-19T12:09:45;21.00;99.90
7704;DHT22;3894;49.700;10.770;2023-09-19T12:12:26;21.10;99.90
7704;DHT22;3894;49.700;10.770;2023-09-19T12:15:01;20.90;99.90
7704;DHT22;3894;49.700;10.770;2023-09-19T12:17:39;20.70;99.90
7704;DHT22;3894;49.700;10.770;2023-09-19T12:20:06;20.60;99.90
7704;DHT22;3894;49.700;10.770;2023-09-19T12:22:41;20.80;99.90
7704;DHT22;3894;49.700;10.770;2023-09-19T12:25:08;21.00;99.90
7704;DHT22;3894;49.700;10.770;2023-09-19T12:27:47;21.10;99.90
7704;DHT22;3894;49.700;10.770;2023-09-19T12:30:13;21.00;99.90
7704;DHT22;3894;49.700;10.770;2023-09-19T12:32:48;20.70;99.90
7704;DHT22;3894;49.700;10.770;2023-09-19T12:35:28;20.40;99.90
7704;DHT22;3894;49.700;10.770;2023-09-19T12:37:55;20.40;99.90
7704;DHT22;3894;49.700;10.770;2023-09-19T12:40:24;20.50;99.90
7704;DHT22;3894;49.700;10.770;2023-09-19T12:42:59;20.70;99.90
7704;DHT22;3894;49.700;10.770;2023-09-19T12:45:29;20.80;99.90
7704;DHT22;3894;49.700;10.770;2023-09-19T12:48:18;20.70;99.90
7704;DHT22;3894;49.700;10.770;2023-09-19T12:51:08;20.60;99.90
7704;DHT22;3894;49.700;10.770;2023-09-19T12:53:40;20.60;99.90
7704;DHT22;3894;49.700;10.770;2023-09-19T12:56:11;20.70;99.90
7704;DHT22;3894;49.700;10.770;2023-09-19T12:58:55;20.70;99.90
7704;DHT22;3894;49.700;10.770;2023-09-19T13:01:21;20.60;99.90
7704;DHT22;3894;49.700;10.770;2023-09-19T13:04:14;20.60;99.90
7704;DHT22;3894;49.700;10.770;2023-09-19T13:06:52;20.50;99.90
7704;DHT22;3894;49.700;10.770;2023-09-19T13:09:19;20.60;99.90
7704;DHT22;3894;49.700;10.770;2023-09-19T13:19:50;21.00;99.90
7704;DHT22;3894;49.700;10.770;2023-09-19T13:22:43;21.00;99.90
7704;DHT22;3894;49.700;10.770;2023-09-19T13:25:27;21.00;99.90
7704;DHT22;3894;49.700;10.770;2023-09-19T13:31:24;21.00;99.90
7704;DHT22;3894;49.700;10.770;2023-09-19T13:33:56;21.10;99.90
7704;DHT22;3894;49.700;10.770;2023-09-19T13:39:12;21.10;99.90
7704;DHT22;3894;49.700;10.770;2023-09-19T13:41:56;21.20;99.90
7704;DHT22;3894;49.700;10.770;2023-09-19T13:44:25;21.20;99.90
7704;DHT22;3894;49.700;10.770;2023-09-19T13:50:04;21.30;99.90
7704;DHT22;3894;49.700;10.770;2023-09-19T13:52:39;21.40;99.90
7704;DHT22;3894;49.700;10.770;2023-09-19T13:55:14;21.30;99.90
7704;DHT22;3894;49.700;10.770;2023-09-19T13:58:07;21.20;99.90
7704;DHT22;3894;49.700;10.770;2023-09-19T14:00:49;21.20;99.90
7704;DHT22;3894;49.700;10.770;2023-09-19T14:03:44;21.10;99.90
7704;DHT22;3894;49.700;10.770;2023-09-19T14:06:16;21.10;99.90
7704;DHT22;3894;49.700;10.770;2023-09-19T14:08:45;21.10;99.90
7704;DHT22;3894;49.700;10.770;2023-09-19T14:11:17;21.10;99.90
7704;DHT22;3894;49.700;10.770;2023-09-19T14:13:48;21.10;99.90
7704;DHT22;3894;49.700;10.770;2023-09-19T14:16:19;21.10;99.90
7704;DHT22;3894;49.700;10.770;2023-09-19T14:18:50;21.20;99.90
7704;DHT22;3894;49.700;10.770;2023-09-19T14:21:29;21.20;99.90
7704;DHT22;3894;49.700;10.770;2023-09-19T14:23:55;21.10;99.90
7704;DHT22;3894;49.700;10.770;2023-09-19T14:26:20;21.10;99.90
7704;DHT22;3894;49.700;10.770;2023-09-19T14:28:48;21.10;99.90
7704;DHT22;3894;49.700;10.770;2023-09-19T14:31:14;21.10;99.90
7704;DHT22;3894;49.700;10.770;2023-09-19T14:33:40;21.00;99.90
7704;DHT22;3894;49.700;10.770;2023-09-19T14:36:08;21.00;99.90
7704;DHT22;3894;49.700;10.770;2023-09-19T14:38:36;20.90;99.90
7704;DHT22;3894;49.700;10.770;2023-09-19T14:41:03;20.90;99.90
7704;DHT22;3894;49.700;10.770;2023-09-19T14:43:30;20.90;99.90
7704;DHT22;3894;49.700;10.770;2023-09-19T14:46:08;21.00;99.90
7704;DHT22;3894;49.700;10.770;2023-09-19T14:48:35;21.00;99.90
7704;DHT22;3894;49.700;10.770;2023-09-19T14:51:04;21.00;99.90
7704;DHT22;3894;49.700;10.770;2023-09-19T14:53:31;20.90;99.90
7704;DHT22;3894;49.700;10.770;2023-09-19T14:55:56;21.00;99.90
7704;DHT22;3894;49.700;10.770;2023-09-19T14:58:22;20.90;99.90
7704;DHT22;3894;49.700;10.770;2023-09-19T15:00:47;21.00;99.90
7704;DHT22;3894;49.700;10.770;2023-09-19T15:03:13;21.00;99.90
7704;DHT22;3894;49.700;10.770;2023-09-19T15:05:39;21.00;99.90
7704;DHT22;3894;49.700;10.770;2023-09-19T15:08:05;21.00;99.90
7704;DHT22;3894;49.700;10.770;2023-09-19T15:10:31;21.00;99.90
7704;DHT22;3894;49.700;10.770;2023-09-19T15:12:57;20.90;99.90
7704;DHT22;3894;49.700;10.770;2023-09-19T15:15:22;20.80;99.90
7704;DHT22;3894;49.700;10.770;2023-09-19T15:17:48;20.80;99.90
7704;DHT22;3894;49.700;10.770;2023-09-19T15:20:14;20.80;99.90
7704;DHT22;3894;49.700;10.770;2023-09-19T15:22:40;20.80;99.90
7704;DHT22;3894;49.700;10.770;2023-09-19T15:25:05;20.80;99.90
7704;DHT22;3894;49.700;10.770;2023-09-19T15:27:32;20.80;99.90
7704;DHT22;3894;49.700;10.770;2023-09-19T15:29:59;20.90;99.90
7704;DHT22;3894;49.700;10.770;2023-09-19T15:32:26;20.90;99.90
7704;DHT22;3894;49.700;10.770;2023-09-19T15:34:51;20.90;99.90
7704;DHT22;3894;49.700;10.770;2023-09-19T15:37:17;20.90;99.90
7704;DHT22;3894;49.700;10.770;2023-09-19T15:39:42;20.90;99.90
7704;DHT22;3894;49.700;10.770;2023-09-19T15:42:10;20.90;99.90
7704;DHT22;3894;49.700;10.770;2023-09-19T15:44:36;20.90;99.90
7704;DHT22;3894;49.700;10.770;2023-09-19T15:47:03;20.90;99.90
7704;DHT22;3894;49.700;10.770;2023-09-19T15:49:28;20.80;99.90
7704;DHT22;3894;49.700;10.770;2023-09-19T15:51:54;20.80;99.90
7704;DHT22;3894;49.700;10.770;2023-09-19T15:54:20;20.80;99.90
7704;DHT22;3894;49.700;10.770;2023-09-19T15:56:46;20.80;99.90
7704;DHT22;3894;49.700;10.770;2023-09-19T15:59:12;20.70;99.90
7704;DHT22;3894;49.700;10.770;2023-09-19T16:01:39;20.60;99.90
7704;DHT22;3894;49.700;10.770;2023-09-19T16:04:06;20.60;99.90
7704;DHT22;3894;49.700;10.770;2023-09-19T16:06:34;20.60;99.90
7704;DHT22;3894;49.700;10.770;2023-09-19T16:09:00;20.60;99.90
7704;DHT22;3894;49.700;10.770;2023-09-19T16:11:29;20.60;99.90
7704;DHT22;3894;49.700;10.770;2023-09-19T16:13:56;20.60;99.90
7704;DHT22;3894;49.700;10.770;2023-09-19T16:16:23;20.50;99.90
7704;DHT22;3894;49.700;10.770;2023-09-19T16:18:51;20.50;99.90
7704;DHT22;3894;49.700;10.770;2023-09-19T16:21:18;20.40;99.90
7704;DHT22;3894;49.700;10.770;2023-09-19T16:23:48;20.30;99.90
7704;DHT22;3894;49.700;10.770;2023-09-19T16:26:20;20.30;99.90
7704;DHT22;3894;49.700;10.770;2023-09-19T16:28:46;20.30;99.90
7704;DHT22;3894;49.700;10.770;2023-09-19T16:31:12;20.30;99.90
7704;DHT22;3894;49.700;10.770;2023-09-19T16:33:40;20.30;99.90
7704;DHT22;3894;49.700;10.770;2023-09-19T16:36:09;20.30;99.90
7704;DHT22;3894;49.700;10.770;2023-09-19T16:38:35;20.30;99.90
7704;DHT22;3894;49.700;10.770;2023-09-19T16:41:02;20.20;99.90
7704;DHT22;3894;49.700;10.770;2023-09-19T16:43:30;20.20;99.90
7704;DHT22;3894;49.700;10.770;2023-09-19T16:45:56;20.10;99.90
7704;DHT22;3894;49.700;10.770;2023-09-19T16:48:23;20.10;99.90
7704;DHT22;3894;49.700;10.770;2023-09-19T16:50:50;20.00;99.90